sensor_id;sensor_type;location;lat;lon;timestamp;P1;durP1;ratioP1;P2;durP2;ratioP2
44508;SDS011;30214;52.246;14.408;2023-06-04T00:02:06;6.90;;;2.60;;
44508;SDS011;30214;52.246;14.408;2023-06-04T00:04:34;6.95;;;2.25;;
44508;SDS011;30214;52.246;14.408;2023-06-04T00:07:01;5.18;;;2.20;;
44508;SDS011;30214;52.246;14.408;2023-06-04T00:09:28;3.08;;;1.77;;
44508;SDS011;30214;52.246;14.408;2023-06-04T00:11:55;5.38;;;2.10;;
44508;SDS011;30214;52.246;14.408;2023-06-04T00:14:22;6.05;;;2.10;;
44508;SDS011;30214;52.246;14.408;2023-06-04T00:16:49;3.58;;;1.95;;
44508;SDS011;30214;52.246;14.408;2023-06-04T00:19:16;5.63;;;2.05;;
44508;SDS011;30214;52.246;14.408;2023-06-04T00:21:44;4.75;;;1.70;;
44508;SDS011;30214;52.246;14.408;2023-06-04T00:24:11;5.28;;;1.90;;
44508;SDS011;30214;52.246;14.408;2023-06-04T00:26:38;5.60;;;1.98;;
44508;SDS011;30214;52.246;14.408;2023-06-04T00:29:05;6.78;;;2.10;;
44508;SDS011;30214;52.246;14.408;2023-06-04T00:31:32;5.32;;;1.70;;
44508;SDS011;30214;52.246;14.408;2023-06-04T00:34:00;3.58;;;1.80;;
44508;SDS011;30214;52.246;14.408;2023-06-04T00:36:27;4.72;;;1.67;;
44508;SDS011;30214;52.246;14.408;2023-06-04T00:38:56;8.13;;;2.72;;
44508;SDS011;30214;52.246;14.408;2023-06-04T00:41:23;6.35;;;1.92;;
44508;SDS011;30214;52.246;14.408;2023-06-04T00:43:50;4.82;;;2.30;;
44508;SDS011;30214;52.246;14.408;2023-06-04T00:46:21;5.53;;;2.38;;
44508;SDS011;30214;52.246;14.408;2023-06-04T00:48:50;4.10;;;2.22;;
44508;SDS011;30214;52.246;14.408;2023-06-04T00:51:21;5.15;;;2.40;;
44508;SDS011;30214;52.246;14.408;2023-06-04T00:53:49;3.83;;;2.22;;
44508;SDS011;30214;52.246;14.408;2023-06-04T00:56:18;2.97;;;1.98;;
44508;SDS011;30214;52.246;14.408;2023-06-04T00:58:45;5.72;;;2.20;;
44508;SDS011;30214;52.246;14.408;2023-06-04T01:01:15;5.97;;;2.20;;
44508;SDS011;30214;52.246;14.408;2023-06-04T01:03:48;4.50;;;1.80;;
44508;SDS011;30214;52.246;14.408;2023-06-04T01:06:19;4.18;;;1.90;;
44508;SDS011;30214;52.246;14.408;2023-06-04T01:08:52;2.80;;;1.77;;
44508;SDS011;30214;52.246;14.408;2023-06-04T01:11:32;3.33;;;2.00;;
44508;SDS011;30214;52.246;14.408;2023-06-04T01:14:01;5.88;;;2.03;;
44508;SDS011;30214;52.246;14.408;2023-06-04T01:16:28;3.92;;;1.73;;
44508;SDS011;30214;52.246;14.408;2023-06-04T01:19:04;4.05;;;1.90;;
44508;SDS011;30214;52.246;14.408;2023-06-04T01:21:47;2.83;;;1.85;;
44508;SDS011;30214;52.246;14.408;2023-06-04T01:24:19;4.22;;;2.10;;
44508;SDS011;30214;52.246;14.408;2023-06-04T01:26:52;3.90;;;2.00;;
44508;SDS011;30214;52.246;14.408;2023-06-04T01:29:21;5.93;;;2.00;;
44508;SDS011;30214;52.246;14.408;2023-06-04T01:31:49;5.20;;;2.00;;
44508;SDS011;30214;52.246;14.408;2023-06-04T01:34:19;4.93;;;2.70;;
44508;SDS011;30214;52.246;14.408;2023-06-04T01:36:46;3.88;;;2.22;;
44508;SDS011;30214;52.246;14.408;2023-06-04T01:39:13;5.28;;;2.03;;
44508;SDS011;30214;52.246;14.408;2023-06-04T01:41:40;2.90;;;1.83;;
44508;SDS011;30214;52.246;14.408;2023-06-04T01:44:08;4.93;;;1.83;;
44508;SDS011;30214;52.246;14.408;2023-06-04T01:46:35;5.07;;;1.85;;
44508;SDS011;30214;52.246;14.408;2023-06-04T01:49:02;5.63;;;2.05;;
44508;SDS011;30214;52.246;14.408;2023-06-04T01:51:30;5.22;;;2.03;;
44508;SDS011;30214;52.246;14.408;2023-06-04T01:53:57;4.25;;;1.80;;
44508;SDS011;30214;52.246;14.408;2023-06-04T01:56:25;3.92;;;1.85;;
44508;SDS011;30214;52.246;14.408;2023-06-04T01:58:53;4.22;;;1.92;;
44508;SDS011;30214;52.246;14.408;2023-06-04T02:01:21;3.67;;;1.80;;
44508;SDS011;30214;52.246;14.408;2023-06-04T02:03:48;3.28;;;1.70;;
44508;SDS011;30214;52.246;14.408;2023-06-04T02:06:16;4.60;;;2.05;;
44508;SDS011;30214;52.246;14.408;2023-06-04T02:08:43;3.60;;;2.05;;
44508;SDS011;30214;52.246;14.408;2023-06-04T02:11:10;5.65;;;1.90;;
44508;SDS011;30214;52.246;14.408;2023-06-04T02:13:36;4.50;;;1.77;;
44508;SDS011;30214;52.246;14.408;2023-06-04T02:16:04;4.18;;;1.85;;
44508;SDS011;30214;52.246;14.408;2023-06-04T02:18:32;7.18;;;2.10;;
44508;SDS011;30214;52.246;14.408;2023-06-04T02:20:59;4.22;;;1.98;;
44508;SDS011;30214;52.246;14.408;2023-06-04T02:23:26;2.95;;;1.80;;
44508;SDS011;30214;52.246;14.408;2023-06-04T02:25:53;4.30;;;1.77;;
44508;SDS011;30214;52.246;14.408;2023-06-04T02:28:20;3.53;;;1.88;;
44508;SDS011;30214;52.246;14.408;2023-06-04T02:30:47;6.20;;;2.10;;
44508;SDS011;30214;52.246;14.408;2023-06-04T02:33:14;3.38;;;1.73;;
44508;SDS011;30214;52.246;14.408;2023-06-04T02:35:43;4.40;;;1.73;;
44508;SDS011;30214;52.246;14.408;2023-06-04T02:38:10;3.90;;;1.80;;
44508;SDS011;30214;52.246;14.408;2023-06-04T02:40:38;3.53;;;2.00;;
44508;SDS011;30214;52.246;14.408;2023-06-04T02:43:05;5.05;;;2.10;;
44508;SDS011;30214;52.246;14.408;2023-06-04T02:45:32;4.22;;;1.88;;
44508;SDS011;30214;52.246;14.408;2023-06-04T02:47:59;5.13;;;2.28;;
44508;SDS011;30214;52.246;14.408;2023-06-04T02:50:26;4.80;;;2.20;;
44508;SDS011;30214;52.246;14.408;2023-06-04T02:52:54;4.63;;;2.10;;
44508;SDS011;30214;52.246;14.408;2023-06-04T02:55:21;5.35;;;2.00;;
44508;SDS011;30214;52.246;14.408;2023-06-04T02:57:49;3.35;;;1.90;;
44508;SDS011;30214;52.246;14.408;2023-06-04T03:00:17;3.40;;;1.98;;
44508;SDS011;30214;52.246;14.408;2023-06-04T03:02:45;3.40;;;1.80;;
44508;SDS011;30214;52.246;14.408;2023-06-04T03:05:15;7.15;;;1.90;;
44508;SDS011;30214;52.246;14.408;2023-06-04T03:07:43;5.13;;;2.30;;
44508;SDS011;30214;52.246;14.408;2023-06-04T03:10:12;4.55;;;1.90;;
44508;SDS011;30214;52.246;14.408;2023-06-04T03:12:40;3.67;;;2.00;;
44508;SDS011;30214;52.246;14.408;2023-06-04T03:15:07;5.97;;;1.90;;
44508;SDS011;30214;52.246;14.408;2023-06-04T03:17:35;4.60;;;2.20;;
44508;SDS011;30214;52.246;14.408;2023-06-04T03:20:02;4.22;;;2.00;;
44508;SDS011;30214;52.246;14.408;2023-06-04T03:22:31;2.80;;;1.80;;
44508;SDS011;30214;52.246;14.408;2023-06-04T03:25:00;2.78;;;1.58;;
44508;SDS011;30214;52.246;14.408;2023-06-04T03:27:31;3.63;;;2.00;;
44508;SDS011;30214;52.246;14.408;2023-06-04T03:30:00;5.05;;;1.80;;
44508;SDS011;30214;52.246;14.408;2023-06-04T03:32:33;4.93;;;1.83;;
44508;SDS011;30214;52.246;14.408;2023-06-04T03:35:03;3.45;;;1.77;;
44508;SDS011;30214;52.246;14.408;2023-06-04T03:37:34;4.72;;;1.95;;
44508;SDS011;30214;52.246;14.408;2023-06-04T03:40:01;3.50;;;1.50;;
44508;SDS011;30214;52.246;14.408;2023-06-04T03:42:31;6.65;;;1.98;;
44508;SDS011;30214;52.246;14.408;2023-06-04T03:44:58;5.68;;;2.10;;
44508;SDS011;30214;52.246;14.408;2023-06-04T03:47:26;3.33;;;1.77;;
44508;SDS011;30214;52.246;14.408;2023-06-04T03:49:54;3.60;;;2.08;;
44508;SDS011;30214;52.246;14.408;2023-06-04T03:52:21;4.03;;;1.73;;
44508;SDS011;30214;52.246;14.408;2023-06-04T03:54:48;2.63;;;1.70;;
44508;SDS011;30214;52.246;14.408;2023-06-04T03:57:15;4.65;;;1.70;;
44508;SDS011;30214;52.246;14.408;2023-06-04T03:59:43;3.83;;;1.80;;
44508;SDS011;30214;52.246;14.408;2023-06-04T04:02:10;3.08;;;1.80;;
44508;SDS011;30214;52.246;14.408;2023-06-04T04:04:39;4.20;;;1.45;;
44508;SDS011;30214;52.246;14.408;2023-06-04T04:07:06;5.18;;;2.10;;
44508;SDS011;30214;52.246;14.408;2023-06-04T04:09:34;3.97;;;2.00;;
44508;SDS011;30214;52.246;14.408;2023-06-04T04:12:02;3.30;;;1.88;;
44508;SDS011;30214;52.246;14.408;2023-06-04T04:14:29;4.05;;;1.83;;
44508;SDS011;30214;52.246;14.408;2023-06-04T04:16:58;5.38;;;2.05;;
44508;SDS011;30214;52.246;14.408;2023-06-04T04:19:25;3.60;;;1.95;;
44508;SDS011;30214;52.246;14.408;2023-06-04T04:21:53;3.40;;;1.73;;
44508;SDS011;30214;52.246;14.408;2023-06-04T04:24:23;3.60;;;1.95;;
44508;SDS011;30214;52.246;14.408;2023-06-04T04:26:52;4.88;;;1.80;;
44508;SDS011;30214;52.246;14.408;2023-06-04T04:29:19;4.38;;;2.28;;
44508;SDS011;30214;52.246;14.408;2023-06-04T04:31:48;21.00;;;1.90;;
44508;SDS011;30214;52.246;14.408;2023-06-04T04:34:18;4.00;;;1.50;;
44508;SDS011;30214;52.246;14.408;2023-06-04T04:36:47;6.90;;;2.00;;
44508;SDS011;30214;52.246;14.408;2023-06-04T04:39:17;4.60;;;1.90;;
44508;SDS011;30214;52.246;14.408;2023-06-04T04:41:46;2.92;;;1.70;;
44508;SDS011;30214;52.246;14.408;2023-06-04T04:44:13;2.95;;;1.65;;
44508;SDS011;30214;52.246;14.408;2023-06-04T04:46:40;4.70;;;1.90;;
44508;SDS011;30214;52.246;14.408;2023-06-04T04:49:07;5.45;;;1.70;;
44508;SDS011;30214;52.246;14.408;2023-06-04T04:51:36;5.20;;;1.85;;
44508;SDS011;30214;52.246;14.408;2023-06-04T04:54:03;4.32;;;1.70;;
44508;SDS011;30214;52.246;14.408;2023-06-04T04:56:33;4.18;;;1.80;;
44508;SDS011;30214;52.246;14.408;2023-06-04T04:59:01;3.17;;;1.80;;
44508;SDS011;30214;52.246;14.408;2023-06-04T05:01:28;2.95;;;1.80;;
44508;SDS011;30214;52.246;14.408;2023-06-04T05:03:55;2.90;;;1.52;;
44508;SDS011;30214;52.246;14.408;2023-06-04T05:06:23;3.83;;;2.00;;
44508;SDS011;30214;52.246;14.408;2023-06-04T05:08:51;4.35;;;2.00;;
44508;SDS011;30214;52.246;14.408;2023-06-04T05:11:18;3.17;;;1.88;;
44508;SDS011;30214;52.246;14.408;2023-06-04T05:13:47;3.70;;;2.05;;
44508;SDS011;30214;52.246;14.408;2023-06-04T05:16:14;6.50;;;2.00;;
44508;SDS011;30214;52.246;14.408;2023-06-04T05:18:41;5.65;;;2.10;;
44508;SDS011;30214;52.246;14.408;2023-06-04T05:21:11;6.90;;;2.10;;
44508;SDS011;30214;52.246;14.408;2023-06-04T05:23:43;6.70;;;2.03;;
44508;SDS011;30214;52.246;14.408;2023-06-04T05:26:15;7.25;;;2.17;;
44508;SDS011;30214;52.246;14.408;2023-06-04T05:28:43;3.90;;;1.70;;
44508;SDS011;30214;52.246;14.408;2023-06-04T05:31:12;4.88;;;2.08;;
44508;SDS011;30214;52.246;14.408;2023-06-04T05:33:45;3.50;;;1.80;;
44508;SDS011;30214;52.246;14.408;2023-06-04T05:36:15;4.70;;;2.42;;
44508;SDS011;30214;52.246;14.408;2023-06-04T05:38:49;5.13;;;1.90;;
44508;SDS011;30214;52.246;14.408;2023-06-04T05:41:24;3.40;;;1.90;;
44508;SDS011;30214;52.246;14.408;2023-06-04T05:43:51;5.55;;;2.13;;
44508;SDS011;30214;52.246;14.408;2023-06-04T05:46:18;4.68;;;2.05;;
44508;SDS011;30214;52.246;14.408;2023-06-04T05:48:46;5.68;;;2.08;;
44508;SDS011;30214;52.246;14.408;2023-06-04T05:51:14;6.72;;;1.98;;
44508;SDS011;30214;52.246;14.408;2023-06-04T05:53:41;3.67;;;1.63;;
44508;SDS011;30214;52.246;14.408;2023-06-04T05:56:09;6.40;;;1.70;;
44508;SDS011;30214;52.246;14.408;2023-06-04T05:58:37;6.30;;;1.90;;
44508;SDS011;30214;52.246;14.408;2023-06-04T06:01:06;5.13;;;1.92;;
44508;SDS011;30214;52.246;14.408;2023-06-04T06:03:33;6.82;;;1.70;;
44508;SDS011;30214;52.246;14.408;2023-06-04T06:06:00;4.20;;;1.80;;
44508;SDS011;30214;52.246;14.408;2023-06-04T06:08:27;3.72;;;1.88;;
44508;SDS011;30214;52.246;14.408;2023-06-04T06:10:55;6.50;;;2.30;;
44508;SDS011;30214;52.246;14.408;2023-06-04T06:13:22;4.90;;;1.80;;
44508;SDS011;30214;52.246;14.408;2023-06-04T06:15:50;5.82;;;1.73;;
44508;SDS011;30214;52.246;14.408;2023-06-04T06:18:18;4.45;;;1.60;;
44508;SDS011;30214;52.246;14.408;2023-06-04T06:20:45;10.70;;;2.10;;
44508;SDS011;30214;52.246;14.408;2023-06-04T06:23:12;4.70;;;2.20;;
44508;SDS011;30214;52.246;14.408;2023-06-04T06:25:43;6.45;;;1.92;;
44508;SDS011;30214;52.246;14.408;2023-06-04T06:28:18;7.47;;;2.13;;
44508;SDS011;30214;52.246;14.408;2023-06-04T06:30:46;4.30;;;2.10;;
44508;SDS011;30214;52.246;14.408;2023-06-04T06:33:15;4.05;;;1.83;;
44508;SDS011;30214;52.246;14.408;2023-06-04T06:35:46;4.03;;;1.90;;
44508;SDS011;30214;52.246;14.408;2023-06-04T06:38:13;6.63;;;2.00;;
44508;SDS011;30214;52.246;14.408;2023-06-04T06:40:40;5.03;;;1.80;;
44508;SDS011;30214;52.246;14.408;2023-06-04T06:43:07;3.95;;;1.85;;
44508;SDS011;30214;52.246;14.408;2023-06-04T06:45:35;6.43;;;1.90;;
44508;SDS011;30214;52.246;14.408;2023-06-04T06:48:02;3.15;;;1.50;;
44508;SDS011;30214;52.246;14.408;2023-06-04T06:50:30;3.83;;;1.30;;
44508;SDS011;30214;52.246;14.408;2023-06-04T06:52:58;5.82;;;1.95;;
44508;SDS011;30214;52.246;14.408;2023-06-04T06:55:25;5.03;;;1.65;;
44508;SDS011;30214;52.246;14.408;2023-06-04T06:57:52;3.03;;;1.63;;
44508;SDS011;30214;52.246;14.408;2023-06-04T07:00:19;4.15;;;1.60;;
44508;SDS011;30214;52.246;14.408;2023-06-04T07:02:46;7.25;;;1.70;;
44508;SDS011;30214;52.246;14.408;2023-06-04T07:05:13;3.88;;;1.60;;
44508;SDS011;30214;52.246;14.408;2023-06-04T07:07:43;6.30;;;1.75;;
44508;SDS011;30214;52.246;14.408;2023-06-04T07:10:11;3.85;;;1.50;;
44508;SDS011;30214;52.246;14.408;2023-06-04T07:12:38;5.50;;;1.55;;
44508;SDS011;30214;52.246;14.408;2023-06-04T07:15:06;6.70;;;1.83;;
44508;SDS011;30214;52.246;14.408;2023-06-04T07:17:33;4.25;;;1.77;;
44508;SDS011;30214;52.246;14.408;2023-06-04T07:20:00;2.60;;;1.30;;
44508;SDS011;30214;52.246;14.408;2023-06-04T07:22:29;3.60;;;1.60;;
44508;SDS011;30214;52.246;14.408;2023-06-04T07:24:57;3.90;;;1.58;;
44508;SDS011;30214;52.246;14.408;2023-06-04T07:27:24;5.43;;;1.73;;
44508;SDS011;30214;52.246;14.408;2023-06-04T07:29:51;5.40;;;1.55;;
44508;SDS011;30214;52.246;14.408;2023-06-04T07:32:18;2.75;;;1.40;;
44508;SDS011;30214;52.246;14.408;2023-06-04T07:34:45;3.13;;;1.40;;
44508;SDS011;30214;52.246;14.408;2023-06-04T07:37:12;2.75;;;1.25;;
44508;SDS011;30214;52.246;14.408;2023-06-04T07:39:40;7.35;;;1.35;;
44508;SDS011;30214;52.246;14.408;2023-06-04T07:42:08;3.65;;;1.40;;
44508;SDS011;30214;52.246;14.408;2023-06-04T07:47:03;5.78;;;1.10;;
44508;SDS011;30214;52.246;14.408;2023-06-04T07:49:30;2.70;;;1.10;;
44508;SDS011;30214;52.246;14.408;2023-06-04T07:51:57;7.55;;;1.45;;
44508;SDS011;30214;52.246;14.408;2023-06-04T07:54:24;1.80;;;0.93;;
44508;SDS011;30214;52.246;14.408;2023-06-04T07:56:54;5.22;;;1.13;;
44508;SDS011;30214;52.246;14.408;2023-06-04T07:59:24;2.95;;;0.95;;
44508;SDS011;30214;52.246;14.408;2023-06-04T08:01:51;4.10;;;1.10;;
44508;SDS011;30214;52.246;14.408;2023-06-04T08:04:18;4.53;;;1.08;;
44508;SDS011;30214;52.246;14.408;2023-06-04T08:06:45;2.30;;;1.02;;
44508;SDS011;30214;52.246;14.408;2023-06-04T08:09:13;3.63;;;1.10;;
44508;SDS011;30214;52.246;14.408;2023-06-04T08:11:41;3.45;;;0.90;;
44508;SDS011;30214;52.246;14.408;2023-06-04T08:14:09;6.80;;;1.10;;
44508;SDS011;30214;52.246;14.408;2023-06-04T08:16:39;2.30;;;1.10;;
44508;SDS011;30214;52.246;14.408;2023-06-04T08:19:06;2.42;;;1.02;;
44508;SDS011;30214;52.246;14.408;2023-06-04T08:21:33;2.72;;;0.90;;
44508;SDS011;30214;52.246;14.408;2023-06-04T08:24:01;4.40;;;1.20;;
44508;SDS011;30214;52.246;14.408;2023-06-04T08:26:28;4.53;;;1.00;;
44508;SDS011;30214;52.246;14.408;2023-06-04T08:28:55;6.85;;;1.00;;
44508;SDS011;30214;52.246;14.408;2023-06-04T08:31:22;2.92;;;1.10;;
44508;SDS011;30214;52.246;14.408;2023-06-04T08:33:51;5.70;;;1.20;;
44508;SDS011;30214;52.246;14.408;2023-06-04T08:36:18;4.47;;;0.90;;
44508;SDS011;30214;52.246;14.408;2023-06-04T08:38:45;8.27;;;1.10;;
44508;SDS011;30214;52.246;14.408;2023-06-04T08:41:16;2.05;;;1.10;;
44508;SDS011;30214;52.246;14.408;2023-06-04T08:43:50;3.60;;;1.13;;
44508;SDS011;30214;52.246;14.408;2023-06-04T08:46:17;3.45;;;1.20;;
44508;SDS011;30214;52.246;14.408;2023-06-04T08:48:46;3.30;;;1.00;;
44508;SDS011;30214;52.246;14.408;2023-06-04T08:51:14;2.33;;;1.00;;
44508;SDS011;30214;52.246;14.408;2023-06-04T08:53:42;2.70;;;0.90;;
44508;SDS011;30214;52.246;14.408;2023-06-04T08:56:12;4.53;;;1.20;;
44508;SDS011;30214;52.246;14.408;2023-06-04T08:58:39;2.75;;;1.00;;
44508;SDS011;30214;52.246;14.408;2023-06-04T09:01:07;3.63;;;1.10;;
44508;SDS011;30214;52.246;14.408;2023-06-04T09:03:35;6.15;;;1.00;;
44508;SDS011;30214;52.246;14.408;2023-06-04T09:06:04;2.97;;;0.80;;
44508;SDS011;30214;52.246;14.408;2023-06-04T09:08:34;3.53;;;1.10;;
44508;SDS011;30214;52.246;14.408;2023-06-04T09:11:05;2.78;;;1.33;;
44508;SDS011;30214;52.246;14.408;2023-06-04T09:13:33;5.03;;;1.45;;
44508;SDS011;30214;52.246;14.408;2023-06-04T09:16:02;4.57;;;0.98;;
44508;SDS011;30214;52.246;14.408;2023-06-04T09:18:30;3.30;;;0.98;;
44508;SDS011;30214;52.246;14.408;2023-06-04T09:21:03;3.70;;;1.00;;
44508;SDS011;30214;52.246;14.408;2023-06-04T09:23:33;2.60;;;1.00;;
44508;SDS011;30214;52.246;14.408;2023-06-04T09:26:07;4.20;;;1.40;;
44508;SDS011;30214;52.246;14.408;2023-06-04T09:28:34;2.03;;;0.90;;
44508;SDS011;30214;52.246;14.408;2023-06-04T09:31:01;3.00;;;1.02;;
44508;SDS011;30214;52.246;14.408;2023-06-04T09:33:29;3.67;;;1.20;;
44508;SDS011;30214;52.246;14.408;2023-06-04T09:35:56;2.65;;;1.00;;
44508;SDS011;30214;52.246;14.408;2023-06-04T09:38:33;3.42;;;0.90;;
44508;SDS011;30214;52.246;14.408;2023-06-04T09:41:01;3.38;;;1.00;;
44508;SDS011;30214;52.246;14.408;2023-06-04T09:43:30;4.63;;;1.08;;
44508;SDS011;30214;52.246;14.408;2023-06-04T09:46:07;3.67;;;1.13;;
44508;SDS011;30214;52.246;14.408;2023-06-04T09:48:36;3.78;;;1.10;;
44508;SDS011;30214;52.246;14.408;2023-06-04T09:51:06;2.75;;;1.00;;
44508;SDS011;30214;52.246;14.408;2023-06-04T09:53:35;3.50;;;1.00;;
44508;SDS011;30214;52.246;14.408;2023-06-04T09:56:04;4.00;;;0.90;;
44508;SDS011;30214;52.246;14.408;2023-06-04T09:58:33;5.75;;;1.15;;
44508;SDS011;30214;52.246;14.408;2023-06-04T10:01:01;2.15;;;0.85;;
44508;SDS011;30214;52.246;14.408;2023-06-04T10:03:30;3.05;;;0.90;;
44508;SDS011;30214;52.246;14.408;2023-06-04T10:05:59;2.10;;;0.98;;
44508;SDS011;30214;52.246;14.408;2023-06-04T10:08:29;2.78;;;0.85;;
44508;SDS011;30214;52.246;14.408;2023-06-04T10:10:58;4.55;;;0.90;;
44508;SDS011;30214;52.246;14.408;2023-06-04T10:13:27;2.80;;;1.00;;
44508;SDS011;30214;52.246;14.408;2023-06-04T10:16:01;2.47;;;0.93;;
44508;SDS011;30214;52.246;14.408;2023-06-04T10:18:31;3.33;;;1.02;;
44508;SDS011;30214;52.246;14.408;2023-06-04T10:21:00;5.50;;;1.17;;
44508;SDS011;30214;52.246;14.408;2023-06-04T10:23:29;4.75;;;1.00;;
44508;SDS011;30214;52.246;14.408;2023-06-04T10:25:59;2.30;;;0.90;;
44508;SDS011;30214;52.246;14.408;2023-06-04T10:28:28;2.42;;;1.00;;
44508;SDS011;30214;52.246;14.408;2023-06-04T10:30:55;1.70;;;0.90;;
44508;SDS011;30214;52.246;14.408;2023-06-04T10:33:22;4.47;;;1.20;;
44508;SDS011;30214;52.246;14.408;2023-06-04T10:35:53;2.10;;;1.00;;
44508;SDS011;30214;52.246;14.408;2023-06-04T10:38:20;5.57;;;0.93;;
44508;SDS011;30214;52.246;14.408;2023-06-04T10:40:47;2.83;;;1.13;;
44508;SDS011;30214;52.246;14.408;2023-06-04T10:43:16;4.60;;;1.10;;
44508;SDS011;30214;52.246;14.408;2023-06-04T10:45:43;2.92;;;1.02;;
44508;SDS011;30214;52.246;14.408;2023-06-04T10:48:11;3.20;;;1.00;;
44508;SDS011;30214;52.246;14.408;2023-06-04T10:50:48;16.60;;;1.40;;
44508;SDS011;30214;52.246;14.408;2023-06-04T10:53:16;3.65;;;1.15;;
44508;SDS011;30214;52.246;14.408;2023-06-04T10:55:45;3.40;;;1.10;;
44508;SDS011;30214;52.246;14.408;2023-06-04T10:58:13;2.67;;;1.00;;
44508;SDS011;30214;52.246;14.408;2023-06-04T11:00:43;2.25;;;1.05;;
44508;SDS011;30214;52.246;14.408;2023-06-04T11:03:14;3.70;;;1.20;;
44508;SDS011;30214;52.246;14.408;2023-06-04T11:05:42;13.23;;;3.72;;
44508;SDS011;30214;52.246;14.408;2023-06-04T11:08:10;3.08;;;1.30;;
44508;SDS011;30214;52.246;14.408;2023-06-04T11:10:39;2.50;;;1.00;;
44508;SDS011;30214;52.246;14.408;2023-06-04T11:13:07;3.40;;;1.00;;
44508;SDS011;30214;52.246;14.408;2023-06-04T11:15:38;2.45;;;1.00;;
44508;SDS011;30214;52.246;14.408;2023-06-04T11:18:06;3.95;;;1.30;;
44508;SDS011;30214;52.246;14.408;2023-06-04T11:20:34;3.65;;;1.30;;
44508;SDS011;30214;52.246;14.408;2023-06-04T11:23:01;2.50;;;1.15;;
44508;SDS011;30214;52.246;14.408;2023-06-04T11:25:29;3.17;;;1.30;;
44508;SDS011;30214;52.246;14.408;2023-06-04T11:27:58;3.13;;;1.20;;
44508;SDS011;30214;52.246;14.408;2023-06-04T11:30:26;3.30;;;1.17;;
44508;SDS011;30214;52.246;14.408;2023-06-04T11:33:02;5.38;;;1.02;;
44508;SDS011;30214;52.246;14.408;2023-06-04T11:35:30;6.07;;;1.20;;
44508;SDS011;30214;52.246;14.408;2023-06-04T11:37:58;2.88;;;1.00;;
44508;SDS011;30214;52.246;14.408;2023-06-04T11:40:25;3.28;;;1.10;;
44508;SDS011;30214;52.246;14.408;2023-06-04T11:42:53;2.45;;;1.10;;
44508;SDS011;30214;52.246;14.408;2023-06-04T11:45:20;2.15;;;1.00;;
44508;SDS011;30214;52.246;14.408;2023-06-04T11:47:49;3.00;;;1.15;;
44508;SDS011;30214;52.246;14.408;2023-06-04T11:50:19;2.80;;;0.90;;
44508;SDS011;30214;52.246;14.408;2023-06-04T11:52:46;2.65;;;1.40;;
44508;SDS011;30214;52.246;14.408;2023-06-04T11:55:14;2.80;;;1.08;;
44508;SDS011;30214;52.246;14.408;2023-06-04T11:57:45;3.58;;;1.30;;
44508;SDS011;30214;52.246;14.408;2023-06-04T12:00:14;2.17;;;0.98;;
44508;SDS011;30214;52.246;14.408;2023-06-04T12:02:49;2.70;;;1.15;;
44508;SDS011;30214;52.246;14.408;2023-06-04T12:05:20;2.47;;;1.35;;
44508;SDS011;30214;52.246;14.408;2023-06-04T12:07:49;2.03;;;1.10;;
44508;SDS011;30214;52.246;14.408;2023-06-04T12:10:17;3.97;;;1.25;;
44508;SDS011;30214;52.246;14.408;2023-06-04T12:12:44;1.80;;;1.00;;
44508;SDS011;30214;52.246;14.408;2023-06-04T12:15:12;2.78;;;1.27;;
44508;SDS011;30214;52.246;14.408;2023-06-04T12:17:51;3.80;;;1.20;;
44508;SDS011;30214;52.246;14.408;2023-06-04T12:20:27;2.70;;;1.05;;
44508;SDS011;30214;52.246;14.408;2023-06-04T12:23:00;3.10;;;1.20;;
44508;SDS011;30214;52.246;14.408;2023-06-04T12:25:28;5.20;;;1.33;;
44508;SDS011;30214;52.246;14.408;2023-06-04T12:27:56;3.17;;;1.20;;
44508;SDS011;30214;52.246;14.408;2023-06-04T12:30:31;3.67;;;1.00;;
44508;SDS011;30214;52.246;14.408;2023-06-04T12:33:01;2.83;;;1.10;;
44508;SDS011;30214;52.246;14.408;2023-06-04T12:35:30;2.25;;;1.10;;
44508;SDS011;30214;52.246;14.408;2023-06-04T12:37:57;2.90;;;1.25;;
44508;SDS011;30214;52.246;14.408;2023-06-04T12:40:24;2.85;;;1.10;;
44508;SDS011;30214;52.246;14.408;2023-06-04T12:42:51;2.45;;;1.00;;
44508;SDS011;30214;52.246;14.408;2023-06-04T12:45:19;2.55;;;1.00;;
44508;SDS011;30214;52.246;14.408;2023-06-04T12:47:47;3.28;;;1.30;;
44508;SDS011;30214;52.246;14.408;2023-06-04T12:50:14;2.72;;;1.33;;
44508;SDS011;30214;52.246;14.408;2023-06-04T12:52:44;2.53;;;1.10;;
44508;SDS011;30214;52.246;14.408;2023-06-04T12:55:11;3.63;;;1.40;;
44508;SDS011;30214;52.246;14.408;2023-06-04T12:57:41;3.35;;;1.23;;
44508;SDS011;30214;52.246;14.408;2023-06-04T13:00:09;2.80;;;1.30;;
44508;SDS011;30214;52.246;14.408;2023-06-04T13:02:36;3.90;;;1.30;;
44508;SDS011;30214;52.246;14.408;2023-06-04T13:05:03;3.53;;;1.20;;
44508;SDS011;30214;52.246;14.408;2023-06-04T13:07:31;2.50;;;1.20;;
44508;SDS011;30214;52.246;14.408;2023-06-04T13:09:59;4.18;;;1.10;;
44508;SDS011;30214;52.246;14.408;2023-06-04T13:12:26;2.75;;;1.10;;
44508;SDS011;30214;52.246;14.408;2023-06-04T13:14:53;2.92;;;1.30;;
44508;SDS011;30214;52.246;14.408;2023-06-04T13:17:21;5.18;;;1.20;;
44508;SDS011;30214;52.246;14.408;2023-06-04T13:19:48;2.70;;;1.13;;
44508;SDS011;30214;52.246;14.408;2023-06-04T13:22:15;4.22;;;1.48;;
44508;SDS011;30214;52.246;14.408;2023-06-04T13:24:41;2.22;;;1.00;;
44508;SDS011;30214;52.246;14.408;2023-06-04T13:27:10;3.80;;;1.17;;
44508;SDS011;30214;52.246;14.408;2023-06-04T13:29:37;3.10;;;1.02;;
44508;SDS011;30214;52.246;14.408;2023-06-04T13:32:04;3.67;;;1.20;;
44508;SDS011;30214;52.246;14.408;2023-06-04T13:34:31;3.40;;;1.30;;
44508;SDS011;30214;52.246;14.408;2023-06-04T13:36:58;4.68;;;1.27;;
44508;SDS011;30214;52.246;14.408;2023-06-04T13:39:25;5.85;;;1.50;;
44508;SDS011;30214;52.246;14.408;2023-06-04T13:41:52;4.60;;;1.20;;
44508;SDS011;30214;52.246;14.408;2023-06-04T13:44:21;11.15;;;5.70;;
44508;SDS011;30214;52.246;14.408;2023-06-04T13:46:51;6.25;;;3.50;;
44508;SDS011;30214;52.246;14.408;2023-06-04T13:49:18;4.07;;;2.00;;
44508;SDS011;30214;52.246;14.408;2023-06-04T13:51:45;7.43;;;5.03;;
44508;SDS011;30214;52.246;14.408;2023-06-04T13:54:15;3.45;;;1.30;;
44508;SDS011;30214;52.246;14.408;2023-06-04T13:56:43;5.85;;;1.30;;
44508;SDS011;30214;52.246;14.408;2023-06-04T13:59:11;2.83;;;1.80;;
44508;SDS011;30214;52.246;14.408;2023-06-04T14:01:39;4.40;;;2.05;;
44508;SDS011;30214;52.246;14.408;2023-06-04T14:04:06;3.10;;;1.10;;
44508;SDS011;30214;52.246;14.408;2023-06-04T14:06:34;3.42;;;1.27;;
44508;SDS011;30214;52.246;14.408;2023-06-04T14:09:02;2.90;;;1.10;;
44508;SDS011;30214;52.246;14.408;2023-06-04T14:11:30;3.65;;;1.10;;
44508;SDS011;30214;52.246;14.408;2023-06-04T14:13:59;2.80;;;0.90;;
44508;SDS011;30214;52.246;14.408;2023-06-04T14:16:26;4.97;;;1.20;;
44508;SDS011;30214;52.246;14.408;2023-06-04T14:18:54;1.98;;;1.00;;
44508;SDS011;30214;52.246;14.408;2023-06-04T14:21:21;2.17;;;1.10;;
44508;SDS011;30214;52.246;14.408;2023-06-04T14:23:49;3.20;;;1.20;;
44508;SDS011;30214;52.246;14.408;2023-06-04T14:26:17;2.53;;;1.20;;
44508;SDS011;30214;52.246;14.408;2023-06-04T14:28:45;2.22;;;1.10;;
44508;SDS011;30214;52.246;14.408;2023-06-04T14:31:12;6.57;;;1.20;;
44508;SDS011;30214;52.246;14.408;2023-06-04T14:33:39;3.75;;;1.10;;
44508;SDS011;30214;52.246;14.408;2023-06-04T14:36:07;5.07;;;1.38;;
44508;SDS011;30214;52.246;14.408;2023-06-04T14:38:35;2.53;;;1.10;;
44508;SDS011;30214;52.246;14.408;2023-06-04T14:41:02;4.05;;;1.30;;
44508;SDS011;30214;52.246;14.408;2023-06-04T14:43:29;4.28;;;1.30;;